sensor_id;sensor_type;location;lat;lon;timestamp;P1;durP1;ratioP1;P2;durP2;ratioP2
75220;SDS011;63802;53.232;6.570;2024-03-02T00:00:06;8.20;;;2.30;;
75220;SDS011;63802;53.232;6.570;2024-03-02T00:02:42;5.22;;;2.22;;
75220;SDS011;63802;53.232;6.570;2024-03-02T00:05:27;5.10;;;2.35;;
75220;SDS011;63802;53.232;6.570;2024-03-02T00:07:57;6.85;;;2.55;;
75220;SDS011;63802;53.232;6.570;2024-03-02T00:12:56;7.25;;;2.58;;
75220;SDS011;63802;53.232;6.570;2024-03-02T00:18:08;4.88;;;2.50;;
75220;SDS011;63802;53.232;6.570;2024-03-02T00:20:35;5.20;;;2.75;;
75220;SDS011;63802;53.232;6.570;2024-03-02T00:23:10;5.88;;;2.80;;
75220;SDS011;63802;53.232;6.570;2024-03-02T00:25:49;4.57;;;2.80;;
75220;SDS011;63802;53.232;6.570;2024-03-02T00:30:52;4.93;;;2.50;;
75220;SDS011;63802;53.232;6.570;2024-03-02T00:33:25;6.05;;;2.55;;
75220;SDS011;63802;53.232;6.570;2024-03-02T00:35:52;5.32;;;2.65;;
75220;SDS011;63802;53.232;6.570;2024-03-02T00:38:18;5.30;;;2.58;;
75220;SDS011;63802;53.232;6.570;2024-03-02T00:40:44;5.85;;;2.80;;
75220;SDS011;63802;53.232;6.570;2024-03-02T00:48:33;6.25;;;2.63;;
75220;SDS011;63802;53.232;6.570;2024-03-02T00:51:02;6.85;;;2.72;;
75220;SDS011;63802;53.232;6.570;2024-03-02T00:53:31;8.15;;;3.10;;
75220;SDS011;63802;53.232;6.570;2024-03-02T00:56:03;6.45;;;2.92;;
75220;SDS011;63802;53.232;6.570;2024-03-02T00:58:34;8.57;;;3.13;;
75220;SDS011;63802;53.232;6.570;2024-03-02T01:01:03;4.97;;;2.45;;
75220;SDS011;63802;53.232;6.570;2024-03-02T01:03:28;6.38;;;3.03;;
75220;SDS011;63802;53.232;6.570;2024-03-02T01:05:56;5.88;;;2.58;;
75220;SDS011;63802;53.232;6.570;2024-03-02T01:08:21;5.15;;;2.90;;
75220;SDS011;63802;53.232;6.570;2024-03-02T01:10:47;6.55;;;2.90;;
75220;SDS011;63802;53.232;6.570;2024-03-02T01:13:12;6.40;;;3.00;;
75220;SDS011;63802;53.232;6.570;2024-03-02T01:15:38;6.13;;;3.17;;
75220;SDS011;63802;53.232;6.570;2024-03-02T01:18:03;5.07;;;2.70;;
75220;SDS011;63802;53.232;6.570;2024-03-02T01:20:29;4.65;;;2.72;;
75220;SDS011;63802;53.232;6.570;2024-03-02T01:22:55;5.60;;;2.70;;
75220;SDS011;63802;53.232;6.570;2024-03-02T01:25:20;6.72;;;2.90;;
75220;SDS011;63802;53.232;6.570;2024-03-02T01:27:46;6.70;;;2.95;;
75220;SDS011;63802;53.232;6.570;2024-03-02T01:30:11;6.38;;;3.00;;
75220;SDS011;63802;53.232;6.570;2024-03-02T01:32:40;6.03;;;3.10;;
75220;SDS011;63802;53.232;6.570;2024-03-02T01:35:05;5.63;;;3.13;;
75220;SDS011;63802;53.232;6.570;2024-03-02T01:37:32;5.93;;;3.30;;
75220;SDS011;63802;53.232;6.570;2024-03-02T01:39:57;6.22;;;3.00;;
75220;SDS011;63802;53.232;6.570;2024-03-02T01:42:23;6.30;;;2.70;;
75220;SDS011;63802;53.232;6.570;2024-03-02T01:44:49;6.30;;;3.03;;
75220;SDS011;63802;53.232;6.570;2024-03-02T01:47:14;6.15;;;3.25;;
75220;SDS011;63802;53.232;6.570;2024-03-02T01:49:40;7.28;;;3.20;;
75220;SDS011;63802;53.232;6.570;2024-03-02T01:52:06;8.07;;;3.28;;
75220;SDS011;63802;53.232;6.570;2024-03-02T01:54:32;7.80;;;3.20;;
75220;SDS011;63802;53.232;6.570;2024-03-02T01:57:00;5.68;;;3.03;;
75220;SDS011;63802;53.232;6.570;2024-03-02T01:59:26;6.05;;;2.80;;
75220;SDS011;63802;53.232;6.570;2024-03-02T02:01:52;4.18;;;2.60;;
75220;SDS011;63802;53.232;6.570;2024-03-02T02:04:18;7.40;;;3.13;;
75220;SDS011;63802;53.232;6.570;2024-03-02T02:06:46;6.25;;;2.88;;
75220;SDS011;63802;53.232;6.570;2024-03-02T02:09:12;6.68;;;3.47;;
75220;SDS011;63802;53.232;6.570;2024-03-02T02:11:43;5.85;;;2.88;;
75220;SDS011;63802;53.232;6.570;2024-03-02T02:14:08;6.88;;;2.97;;
75220;SDS011;63802;53.232;6.570;2024-03-02T02:16:34;6.45;;;2.90;;
75220;SDS011;63802;53.232;6.570;2024-03-02T02:18:59;9.38;;;2.88;;
75220;SDS011;63802;53.232;6.570;2024-03-02T02:21:25;6.22;;;3.00;;
75220;SDS011;63802;53.232;6.570;2024-03-02T02:23:52;7.00;;;3.10;;
75220;SDS011;63802;53.232;6.570;2024-03-02T02:26:17;7.57;;;3.08;;
75220;SDS011;63802;53.232;6.570;2024-03-02T02:28:43;9.48;;;3.05;;
75220;SDS011;63802;53.232;6.570;2024-03-02T02:31:12;7.95;;;2.88;;
75220;SDS011;63802;53.232;6.570;2024-03-02T02:33:41;6.70;;;3.40;;
75220;SDS011;63802;53.232;6.570;2024-03-02T02:36:08;4.32;;;2.60;;
75220;SDS011;63802;53.232;6.570;2024-03-02T02:38:36;6.13;;;2.72;;
75220;SDS011;63802;53.232;6.570;2024-03-02T02:41:06;8.85;;;3.25;;
75220;SDS011;63802;53.232;6.570;2024-03-02T02:43:32;6.40;;;3.03;;
75220;SDS011;63802;53.232;6.570;2024-03-02T02:45:57;4.65;;;2.70;;
75220;SDS011;63802;53.232;6.570;2024-03-02T02:48:23;4.43;;;2.53;;
75220;SDS011;63802;53.232;6.570;2024-03-02T02:50:48;6.10;;;2.90;;
75220;SDS011;63802;53.232;6.570;2024-03-02T02:53:14;5.55;;;2.90;;
75220;SDS011;63802;53.232;6.570;2024-03-02T02:55:39;6.15;;;3.08;;
75220;SDS011;63802;53.232;6.570;2024-03-02T02:58:11;6.90;;;2.53;;
75220;SDS011;63802;53.232;6.570;2024-03-02T03:00:36;6.57;;;3.10;;
75220;SDS011;63802;53.232;6.570;2024-03-02T03:03:02;8.07;;;3.35;;
75220;SDS011;63802;53.232;6.570;2024-03-02T03:05:28;5.57;;;2.65;;
75220;SDS011;63802;53.232;6.570;2024-03-02T03:07:53;5.10;;;2.83;;
75220;SDS011;63802;53.232;6.570;2024-03-02T03:10:19;4.13;;;2.15;;
75220;SDS011;63802;53.232;6.570;2024-03-02T03:12:47;5.65;;;2.80;;
75220;SDS011;63802;53.232;6.570;2024-03-02T03:15:13;4.75;;;2.30;;
75220;SDS011;63802;53.232;6.570;2024-03-02T03:17:41;4.45;;;2.03;;
75220;SDS011;63802;53.232;6.570;2024-03-02T03:20:07;4.63;;;2.33;;
75220;SDS011;63802;53.232;6.570;2024-03-02T03:22:36;4.28;;;2.20;;
75220;SDS011;63802;53.232;6.570;2024-03-02T03:25:01;5.45;;;2.00;;
75220;SDS011;63802;53.232;6.570;2024-03-02T03:27:28;4.30;;;1.95;;
75220;SDS011;63802;53.232;6.570;2024-03-02T03:29:54;5.28;;;1.95;;
75220;SDS011;63802;53.232;6.570;2024-03-02T03:32:19;3.58;;;2.20;;
75220;SDS011;63802;53.232;6.570;2024-03-02T03:34:45;4.00;;;2.13;;
75220;SDS011;63802;53.232;6.570;2024-03-02T03:37:12;3.28;;;2.00;;
75220;SDS011;63802;53.232;6.570;2024-03-02T03:39:38;3.85;;;2.10;;
75220;SDS011;63802;53.232;6.570;2024-03-02T03:42:04;3.53;;;2.30;;
75220;SDS011;63802;53.232;6.570;2024-03-02T03:44:29;3.40;;;1.95;;
75220;SDS011;63802;53.232;6.570;2024-03-02T03:46:55;3.30;;;2.10;;
75220;SDS011;63802;53.232;6.570;2024-03-02T03:49:20;5.63;;;1.95;;
75220;SDS011;63802;53.232;6.570;2024-03-02T03:51:46;5.95;;;2.42;;
75220;SDS011;63802;53.232;6.570;2024-03-02T03:54:11;4.40;;;2.00;;
75220;SDS011;63802;53.232;6.570;2024-03-02T03:56:37;4.32;;;1.95;;
75220;SDS011;63802;53.232;6.570;2024-03-02T03:59:02;5.00;;;1.98;;
75220;SDS011;63802;53.232;6.570;2024-03-02T04:01:29;3.55;;;2.30;;
75220;SDS011;63802;53.232;6.570;2024-03-02T04:03:55;4.68;;;2.30;;
75220;SDS011;63802;53.232;6.570;2024-03-02T04:06:20;7.13;;;2.03;;
75220;SDS011;63802;53.232;6.570;2024-03-02T04:08:46;4.20;;;2.10;;
75220;SDS011;63802;53.232;6.570;2024-03-02T04:11:11;3.85;;;1.90;;
75220;SDS011;63802;53.232;6.570;2024-03-02T04:13:37;5.22;;;2.38;;
75220;SDS011;63802;53.232;6.570;2024-03-02T04:16:05;4.65;;;1.98;;
75220;SDS011;63802;53.232;6.570;2024-03-02T04:18:31;4.05;;;2.30;;
75220;SDS011;63802;53.232;6.570;2024-03-02T04:21:00;3.13;;;2.20;;
75220;SDS011;63802;53.232;6.570;2024-03-02T04:23:26;3.90;;;2.53;;
75220;SDS011;63802;53.232;6.570;2024-03-02T04:25:51;4.88;;;2.10;;
75220;SDS011;63802;53.232;6.570;2024-03-02T04:28:17;4.78;;;2.13;;
75220;SDS011;63802;53.232;6.570;2024-03-02T04:30:42;5.07;;;2.22;;
75220;SDS011;63802;53.232;6.570;2024-03-02T04:33:08;3.75;;;2.47;;
75220;SDS011;63802;53.232;6.570;2024-03-02T04:35:38;3.30;;;2.00;;
75220;SDS011;63802;53.232;6.570;2024-03-02T04:38:03;7.70;;;2.25;;
75220;SDS011;63802;53.232;6.570;2024-03-02T04:40:29;6.05;;;2.47;;
75220;SDS011;63802;53.232;6.570;2024-03-02T04:42:57;5.07;;;2.60;;
75220;SDS011;63802;53.232;6.570;2024-03-02T04:45:24;6.85;;;2.15;;
75220;SDS011;63802;53.232;6.570;2024-03-02T04:47:49;4.22;;;2.15;;
75220;SDS011;63802;53.232;6.570;2024-03-02T04:50:15;5.35;;;2.35;;
75220;SDS011;63802;53.232;6.570;2024-03-02T04:52:40;4.07;;;2.35;;
75220;SDS011;63802;53.232;6.570;2024-03-02T04:55:05;2.65;;;1.90;;
75220;SDS011;63802;53.232;6.570;2024-03-02T04:57:49;4.63;;;1.98;;
75220;SDS011;63802;53.232;6.570;2024-03-02T05:00:16;6.13;;;2.60;;
75220;SDS011;63802;53.232;6.570;2024-03-02T05:02:42;4.70;;;2.35;;
75220;SDS011;63802;53.232;6.570;2024-03-02T05:05:08;5.97;;;2.40;;
75220;SDS011;63802;53.232;6.570;2024-03-02T05:07:33;5.18;;;2.42;;
75220;SDS011;63802;53.232;6.570;2024-03-02T05:09:59;5.32;;;2.35;;
75220;SDS011;63802;53.232;6.570;2024-03-02T05:12:24;5.20;;;2.30;;
75220;SDS011;63802;53.232;6.570;2024-03-02T05:15:11;6.20;;;2.38;;
75220;SDS011;63802;53.232;6.570;2024-03-02T05:17:49;2.72;;;2.00;;
75220;SDS011;63802;53.232;6.570;2024-03-02T05:20:14;5.03;;;2.17;;
75220;SDS011;63802;53.232;6.570;2024-03-02T05:22:40;5.80;;;2.30;;
75220;SDS011;63802;53.232;6.570;2024-03-02T05:25:06;5.38;;;2.55;;
75220;SDS011;63802;53.232;6.570;2024-03-02T05:27:32;5.40;;;2.28;;
75220;SDS011;63802;53.232;6.570;2024-03-02T05:29:58;4.25;;;2.20;;
75220;SDS011;63802;53.232;6.570;2024-03-02T05:32:24;6.15;;;2.58;;
75220;SDS011;63802;53.232;6.570;2024-03-02T05:34:50;6.45;;;2.30;;
75220;SDS011;63802;53.232;6.570;2024-03-02T05:37:18;3.25;;;2.08;;
75220;SDS011;63802;53.232;6.570;2024-03-02T05:39:44;8.38;;;2.70;;
75220;SDS011;63802;53.232;6.570;2024-03-02T05:42:10;4.90;;;2.33;;
75220;SDS011;63802;53.232;6.570;2024-03-02T05:44:36;6.50;;;2.20;;
75220;SDS011;63802;53.232;6.570;2024-03-02T05:47:01;3.88;;;2.20;;
75220;SDS011;63802;53.232;6.570;2024-03-02T05:49:28;5.38;;;2.30;;
75220;SDS011;63802;53.232;6.570;2024-03-02T05:51:53;2.88;;;2.17;;
75220;SDS011;63802;53.232;6.570;2024-03-02T05:54:19;4.07;;;2.33;;
75220;SDS011;63802;53.232;6.570;2024-03-02T05:56:44;7.43;;;2.15;;
75220;SDS011;63802;53.232;6.570;2024-03-02T05:59:13;4.45;;;2.53;;
75220;SDS011;63802;53.232;6.570;2024-03-02T06:01:42;7.72;;;2.53;;
75220;SDS011;63802;53.232;6.570;2024-03-02T06:06:34;4.18;;;2.25;;
75220;SDS011;63802;53.232;6.570;2024-03-02T06:09:01;4.22;;;2.30;;
75220;SDS011;63802;53.232;6.570;2024-03-02T06:11:30;3.92;;;2.40;;
75220;SDS011;63802;53.232;6.570;2024-03-02T06:13:56;4.43;;;2.20;;
75220;SDS011;63802;53.232;6.570;2024-03-02T06:16:22;5.47;;;2.47;;
75220;SDS011;63802;53.232;6.570;2024-03-02T06:18:47;4.55;;;2.33;;
75220;SDS011;63802;53.232;6.570;2024-03-02T06:21:12;5.72;;;2.30;;
75220;SDS011;63802;53.232;6.570;2024-03-02T06:23:38;4.15;;;2.17;;
75220;SDS011;63802;53.232;6.570;2024-03-02T06:26:03;4.78;;;2.40;;
75220;SDS011;63802;53.232;6.570;2024-03-02T06:28:28;7.22;;;2.90;;
75220;SDS011;63802;53.232;6.570;2024-03-02T06:30:54;6.15;;;2.70;;
75220;SDS011;63802;53.232;6.570;2024-03-02T06:33:19;8.85;;;2.83;;
75220;SDS011;63802;53.232;6.570;2024-03-02T06:35:45;4.45;;;2.50;;
75220;SDS011;63802;53.232;6.570;2024-03-02T06:38:10;8.82;;;2.63;;
75220;SDS011;63802;53.232;6.570;2024-03-02T06:40:36;6.57;;;2.25;;
75220;SDS011;63802;53.232;6.570;2024-03-02T06:43:04;2.33;;;2.08;;
75220;SDS011;63802;53.232;6.570;2024-03-02T06:45:30;3.67;;;2.22;;
75220;SDS011;63802;53.232;6.570;2024-03-02T06:47:55;4.10;;;2.47;;
75220;SDS011;63802;53.232;6.570;2024-03-02T06:50:21;3.10;;;2.13;;
75220;SDS011;63802;53.232;6.570;2024-03-02T06:52:47;3.88;;;2.33;;
75220;SDS011;63802;53.232;6.570;2024-03-02T06:55:12;3.65;;;2.38;;
75220;SDS011;63802;53.232;6.570;2024-03-02T06:57:37;4.65;;;2.30;;
75220;SDS011;63802;53.232;6.570;2024-03-02T07:00:03;7.10;;;2.30;;
75220;SDS011;63802;53.232;6.570;2024-03-02T07:02:30;2.28;;;1.88;;
75220;SDS011;63802;53.232;6.570;2024-03-02T07:04:56;4.20;;;2.13;;
75220;SDS011;63802;53.232;6.570;2024-03-02T07:07:34;4.50;;;2.28;;
75220;SDS011;63802;53.232;6.570;2024-03-02T07:10:03;2.25;;;1.80;;
75220;SDS011;63802;53.232;6.570;2024-03-02T07:14:59;3.25;;;2.13;;
75220;SDS011;63802;53.232;6.570;2024-03-02T07:17:27;3.70;;;1.73;;
75220;SDS011;63802;53.232;6.570;2024-03-02T07:19:53;2.97;;;1.95;;
75220;SDS011;63802;53.232;6.570;2024-03-02T07:22:18;3.28;;;1.75;;
75220;SDS011;63802;53.232;6.570;2024-03-02T07:24:44;4.55;;;2.00;;
75220;SDS011;63802;53.232;6.570;2024-03-02T07:27:11;2.60;;;1.60;;
75220;SDS011;63802;53.232;6.570;2024-03-02T07:29:38;2.95;;;1.67;;
75220;SDS011;63802;53.232;6.570;2024-03-02T07:32:04;3.05;;;1.90;;
75220;SDS011;63802;53.232;6.570;2024-03-02T07:34:30;2.53;;;1.83;;
75220;SDS011;63802;53.232;6.570;2024-03-02T07:36:56;2.80;;;1.92;;
75220;SDS011;63802;53.232;6.570;2024-03-02T07:39:22;5.10;;;2.00;;
75220;SDS011;63802;53.232;6.570;2024-03-02T07:41:48;3.00;;;1.90;;
75220;SDS011;63802;53.232;6.570;2024-03-02T07:44:13;3.20;;;1.77;;
75220;SDS011;63802;53.232;6.570;2024-03-02T07:46:44;4.65;;;2.03;;
75220;SDS011;63802;53.232;6.570;2024-03-02T07:49:11;4.30;;;2.35;;
75220;SDS011;63802;53.232;6.570;2024-03-02T07:51:41;4.43;;;2.10;;
75220;SDS011;63802;53.232;6.570;2024-03-02T07:54:07;3.78;;;2.15;;
75220;SDS011;63802;53.232;6.570;2024-03-02T07:56:32;4.13;;;2.08;;
75220;SDS011;63802;53.232;6.570;2024-03-02T07:58:58;5.57;;;2.30;;
75220;SDS011;63802;53.232;6.570;2024-03-02T08:01:29;3.83;;;2.30;;
75220;SDS011;63802;53.232;6.570;2024-03-02T08:03:59;6.07;;;2.83;;
75220;SDS011;63802;53.232;6.570;2024-03-02T08:06:26;5.25;;;2.35;;
75220;SDS011;63802;53.232;6.570;2024-03-02T08:08:56;4.97;;;2.45;;
75220;SDS011;63802;53.232;6.570;2024-03-02T08:11:23;2.90;;;1.70;;
75220;SDS011;63802;53.232;6.570;2024-03-02T08:13:49;3.90;;;2.00;;
75220;SDS011;63802;53.232;6.570;2024-03-02T08:16:17;3.30;;;2.22;;
75220;SDS011;63802;53.232;6.570;2024-03-02T08:18:45;3.90;;;1.90;;
75220;SDS011;63802;53.232;6.570;2024-03-02T08:21:11;1.85;;;1.63;;
75220;SDS011;63802;53.232;6.570;2024-03-02T08:23:38;3.42;;;1.90;;
75220;SDS011;63802;53.232;6.570;2024-03-02T08:26:03;4.65;;;2.05;;
75220;SDS011;63802;53.232;6.570;2024-03-02T08:28:29;3.83;;;1.60;;
75220;SDS011;63802;53.232;6.570;2024-03-02T08:30:55;4.43;;;1.70;;
75220;SDS011;63802;53.232;6.570;2024-03-02T08:33:25;2.85;;;1.70;;
75220;SDS011;63802;53.232;6.570;2024-03-02T08:35:50;4.50;;;1.60;;
75220;SDS011;63802;53.232;6.570;2024-03-02T08:38:17;3.10;;;1.67;;
75220;SDS011;63802;53.232;6.570;2024-03-02T08:40:43;4.00;;;1.77;;
75220;SDS011;63802;53.232;6.570;2024-03-02T08:43:09;2.72;;;1.65;;
75220;SDS011;63802;53.232;6.570;2024-03-02T08:45:35;4.88;;;1.60;;
75220;SDS011;63802;53.232;6.570;2024-03-02T08:48:00;3.80;;;1.52;;
75220;SDS011;63802;53.232;6.570;2024-03-02T08:50:26;3.20;;;2.00;;
75220;SDS011;63802;53.232;6.570;2024-03-02T08:52:51;2.88;;;1.67;;
75220;SDS011;63802;53.232;6.570;2024-03-02T08:55:17;3.22;;;1.50;;
75220;SDS011;63802;53.232;6.570;2024-03-02T08:57:42;2.67;;;1.45;;
75220;SDS011;63802;53.232;6.570;2024-03-02T09:00:09;3.65;;;1.60;;
75220;SDS011;63802;53.232;6.570;2024-03-02T09:02:35;1.77;;;1.20;;
75220;SDS011;63802;53.232;6.570;2024-03-02T09:05:01;1.52;;;1.30;;
75220;SDS011;63802;53.232;6.570;2024-03-02T09:07:26;1.38;;;1.17;;
75220;SDS011;63802;53.232;6.570;2024-03-02T09:09:52;3.05;;;1.42;;
75220;SDS011;63802;53.232;6.570;2024-03-02T09:12:17;1.67;;;1.20;;
75220;SDS011;63802;53.232;6.570;2024-03-02T09:14:44;1.75;;;1.38;;
75220;SDS011;63802;53.232;6.570;2024-03-02T09:17:11;3.05;;;1.70;;
75220;SDS011;63802;53.232;6.570;2024-03-02T09:19:37;4.65;;;1.20;;
75220;SDS011;63802;53.232;6.570;2024-03-02T09:22:03;3.45;;;1.20;;
75220;SDS011;63802;53.232;6.570;2024-03-02T09:24:30;3.72;;;1.45;;
75220;SDS011;63802;53.232;6.570;2024-03-02T09:26:56;1.67;;;1.10;;
75220;SDS011;63802;53.232;6.570;2024-03-02T09:29:23;4.72;;;1.10;;
75220;SDS011;63802;53.232;6.570;2024-03-02T09:31:48;2.45;;;1.40;;
75220;SDS011;63802;53.232;6.570;2024-03-02T09:34:15;2.17;;;1.20;;
75220;SDS011;63802;53.232;6.570;2024-03-02T09:36:41;2.92;;;1.17;;
75220;SDS011;63802;53.232;6.570;2024-03-02T09:39:07;1.33;;;1.10;;
75220;SDS011;63802;53.232;6.570;2024-03-02T09:41:34;1.13;;;1.02;;
75220;SDS011;63802;53.232;6.570;2024-03-02T09:44:11;3.08;;;1.33;;
75220;SDS011;63802;53.232;6.570;2024-03-02T09:46:37;2.63;;;0.98;;
75220;SDS011;63802;53.232;6.570;2024-03-02T09:49:03;1.80;;;0.93;;
75220;SDS011;63802;53.232;6.570;2024-03-02T09:51:29;2.40;;;1.10;;
75220;SDS011;63802;53.232;6.570;2024-03-02T09:53:55;3.83;;;1.33;;
75220;SDS011;63802;53.232;6.570;2024-03-02T09:56:21;4.57;;;1.00;;
75220;SDS011;63802;53.232;6.570;2024-03-02T09:58:47;2.08;;;1.00;;
75220;SDS011;63802;53.232;6.570;2024-03-02T10:01:14;2.08;;;0.90;;
75220;SDS011;63802;53.232;6.570;2024-03-02T10:03:39;1.70;;;1.10;;
75220;SDS011;63802;53.232;6.570;2024-03-02T10:06:24;1.67;;;0.90;;
75220;SDS011;63802;53.232;6.570;2024-03-02T10:08:50;2.25;;;1.05;;
75220;SDS011;63802;53.232;6.570;2024-03-02T10:11:32;1.13;;;0.93;;
75220;SDS011;63802;53.232;6.570;2024-03-02T10:16:33;1.65;;;1.30;;
75220;SDS011;63802;53.232;6.570;2024-03-02T10:19:35;1.83;;;1.30;;
75220;SDS011;63802;53.232;6.570;2024-03-02T10:21:57;2.97;;;1.13;;
75220;SDS011;63802;53.232;6.570;2024-03-02T10:24:23;4.65;;;1.20;;
75220;SDS011;63802;53.232;6.570;2024-03-02T10:26:49;5.72;;;1.05;;
75220;SDS011;63802;53.232;6.570;2024-03-02T10:29:15;1.17;;;1.02;;
75220;SDS011;63802;53.232;6.570;2024-03-02T10:31:42;1.20;;;1.02;;
75220;SDS011;63802;53.232;6.570;2024-03-02T10:34:09;2.65;;;1.05;;
75220;SDS011;63802;53.232;6.570;2024-03-02T10:36:36;1.40;;;0.85;;
75220;SDS011;63802;53.232;6.570;2024-03-02T10:39:02;4.18;;;1.15;;
75220;SDS011;63802;53.232;6.570;2024-03-02T10:41:29;2.95;;;1.33;;
75220;SDS011;63802;53.232;6.570;2024-03-02T10:43:58;1.35;;;0.88;;
75220;SDS011;63802;53.232;6.570;2024-03-02T10:46:28;3.60;;;1.10;;
75220;SDS011;63802;53.232;6.570;2024-03-02T10:48:55;2.53;;;1.25;;
75220;SDS011;63802;53.232;6.570;2024-03-02T10:51:24;1.88;;;1.08;;
75220;SDS011;63802;53.232;6.570;2024-03-02T10:53:49;1.42;;;0.95;;
75220;SDS011;63802;53.232;6.570;2024-03-02T10:56:16;1.38;;;1.10;;
75220;SDS011;63802;53.232;6.570;2024-03-02T10:58:50;3.58;;;1.20;;
75220;SDS011;63802;53.232;6.570;2024-03-02T11:01:20;2.10;;;1.15;;
75220;SDS011;63802;53.232;6.570;2024-03-02T11:03:46;3.83;;;1.20;;
75220;SDS011;63802;53.232;6.570;2024-03-02T11:06:13;1.13;;;1.02;;
75220;SDS011;63802;53.232;6.570;2024-03-02T11:08:39;1.98;;;1.05;;
75220;SDS011;63802;53.232;6.570;2024-03-02T11:11:43;2.25;;;1.30;;
75220;SDS011;63802;53.232;6.570;2024-03-02T11:14:13;1.77;;;0.98;;
75220;SDS011;63802;53.232;6.570;2024-03-02T11:16:42;1.25;;;0.90;;
75220;SDS011;63802;53.232;6.570;2024-03-02T11:19:10;2.95;;;1.33;;
75220;SDS011;63802;53.232;6.570;2024-03-02T11:21:39;2.72;;;1.42;;
75220;SDS011;63802;53.232;6.570;2024-03-02T11:26:47;2.55;;;1.52;;
75220;SDS011;63802;53.232;6.570;2024-03-02T11:34:39;2.15;;;1.10;;
75220;SDS011;63802;53.232;6.570;2024-03-02T11:37:10;2.40;;;1.30;;
75220;SDS011;63802;53.232;6.570;2024-03-02T11:39:44;1.88;;;1.23;;
75220;SDS011;63802;53.232;6.570;2024-03-02T11:42:10;1.55;;;1.23;;
75220;SDS011;63802;53.232;6.570;2024-03-02T11:44:43;2.50;;;1.10;;
75220;SDS011;63802;53.232;6.570;2024-03-02T11:47:16;2.70;;;1.30;;
75220;SDS011;63802;53.232;6.570;2024-03-02T11:49:46;2.55;;;1.25;;
75220;SDS011;63802;53.232;6.570;2024-03-02T11:52:16;4.30;;;1.70;;
75220;SDS011;63802;53.232;6.570;2024-03-02T11:54:48;2.53;;;1.30;;
75220;SDS011;63802;53.232;6.570;2024-03-02T11:57:18;4.78;;;1.20;;
75220;SDS011;63802;53.232;6.570;2024-03-02T11:59:52;1.92;;;0.93;;
75220;SDS011;63802;53.232;6.570;2024-03-02T12:02:19;1.27;;;1.10;;
75220;SDS011;63802;53.232;6.570;2024-03-02T12:04:46;2.17;;;1.10;;
75220;SDS011;63802;53.232;6.570;2024-03-02T12:07:22;2.28;;;1.38;;
75220;SDS011;63802;53.232;6.570;2024-03-02T12:10:06;1.23;;;1.00;;
75220;SDS011;63802;53.232;6.570;2024-03-02T12:12:36;1.92;;;1.10;;
75220;SDS011;63802;53.232;6.570;2024-03-02T12:15:08;2.40;;;0.82;;
75220;SDS011;63802;53.232;6.570;2024-03-02T12:20:06;3.22;;;1.10;;
75220;SDS011;63802;53.232;6.570;2024-03-02T12:22:32;1.92;;;1.25;;
75220;SDS011;63802;53.232;6.570;2024-03-02T12:25:01;1.20;;;1.10;;
75220;SDS011;63802;53.232;6.570;2024-03-02T12:27:28;2.83;;;1.17;;
75220;SDS011;63802;53.232;6.570;2024-03-02T12:30:10;2.53;;;1.33;;
75220;SDS011;63802;53.232;6.570;2024-03-02T12:32:38;1.25;;;1.15;;
75220;SDS011;63802;53.232;6.570;2024-03-02T12:35:04;1.30;;;1.20;;
75220;SDS011;63802;53.232;6.570;2024-03-02T12:37:30;2.00;;;1.38;;
75220;SDS011;63802;53.232;6.570;2024-03-02T12:39:56;1.85;;;1.35;;
75220;SDS011;63802;53.232;6.570;2024-03-02T12:42:23;2.38;;;1.52;;
75220;SDS011;63802;53.232;6.570;2024-03-02T12:44:53;1.70;;;1.55;;
75220;SDS011;63802;53.232;6.570;2024-03-02T12:47:20;5.32;;;1.95;;
75220;SDS011;63802;53.232;6.570;2024-03-02T12:49:46;2.28;;;1.77;;
75220;SDS011;63802;53.232;6.570;2024-03-02T12:52:12;2.65;;;1.70;;
75220;SDS011;63802;53.232;6.570;2024-03-02T12:54:38;2.33;;;1.42;;
75220;SDS011;63802;53.232;6.570;2024-03-02T12:57:07;2.35;;;1.70;;
75220;SDS011;63802;53.232;6.570;2024-03-02T12:59:32;1.73;;;1.60;;
75220;SDS011;63802;53.232;6.570;2024-03-02T13:01:58;3.45;;;1.90;;
75220;SDS011;63802;53.232;6.570;2024-03-02T13:04:27;2.38;;;1.88;;
75220;SDS011;63802;53.232;6.570;2024-03-02T13:06:57;2.65;;;2.05;;
75220;SDS011;63802;53.232;6.570;2024-03-02T13:09:23;1.80;;;1.70;;
75220;SDS011;63802;53.232;6.570;2024-03-02T13:11:51;2.57;;;1.70;;
75220;SDS011;63802;53.232;6.570;2024-03-02T13:14:21;3.08;;;1.70;;
75220;SDS011;63802;53.232;6.570;2024-03-02T13:16:51;1.77;;;1.65;;
75220;SDS011;63802;53.232;6.570;2024-03-02T13:19:19;2.97;;;2.33;;
75220;SDS011;63802;53.232;6.570;2024-03-02T13:21:45;6.30;;;2.00;;
75220;SDS011;63802;53.232;6.570;2024-03-02T13:24:19;3.65;;;2.17;;
75220;SDS011;63802;53.232;6.570;2024-03-02T13:26:53;4.00;;;2.30;;
75220;SDS011;63802;53.232;6.570;2024-03-02T13:29:21;5.65;;;2.80;;
75220;SDS011;63802;53.232;6.570;2024-03-02T13:31:47;5.03;;;2.83;;
75220;SDS011;63802;53.232;6.570;2024-03-02T13:34:22;5.57;;;3.13;;
75220;SDS011;63802;53.232;6.570;2024-03-02T13:36:48;5.45;;;3.40;;
75220;SDS011;63802;53.232;6.570;2024-03-02T13:39:21;5.70;;;3.55;;
75220;SDS011;63802;53.232;6.570;2024-03-02T13:41:47;10.95;;;5.05;;
75220;SDS011;63802;53.232;6.570;2024-03-02T13:44:21;7.45;;;3.85;;
75220;SDS011;63802;53.232;6.570;2024-03-02T13:46:56;5.40;;;3.35;;
75220;SDS011;63802;53.232;6.570;2024-03-02T13:49:35;5.20;;;3.47;;
75220;SDS011;63802;53.232;6.570;2024-03-02T13:54:57;6.15;;;3.40;;
75220;SDS011;63802;53.232;6.570;2024-03-02T13:57:23;3.88;;;3.10;;
75220;SDS011;63802;53.232;6.570;2024-03-02T13:59:49;6.18;;;3.70;;
75220;SDS011;63802;53.232;6.570;2024-03-02T14:02:19;5.40;;;3.13;;
75220;SDS011;63802;53.232;6.570;2024-03-02T14:04:49;5.72;;;3.20;;
75220;SDS011;63802;53.232;6.570;2024-03-02T14:09:59;4.50;;;3.10;;
75220;SDS011;63802;53.232;6.570;2024-03-02T14:12:41;3.42;;;2.83;;
75220;SDS011;63802;53.232;6.570;2024-03-02T14:15:18;5.40;;;3.20;;
75220;SDS011;63802;53.232;6.570;2024-03-02T14:17:50;4.78;;;3.03;;
75220;SDS011;63802;53.232;6.570;2024-03-02T14:20:16;3.75;;;2.60;;
75220;SDS011;63802;53.232;6.570;2024-03-02T14:22:53;4.25;;;2.40;;
75220;SDS011;63802;53.232;6.570;2024-03-02T14:25:21;4.28;;;2.40;;
75220;SDS011;63802;53.232;6.570;2024-03-02T14:27:53;4.15;;;2.42;;
75220;SDS011;63802;53.232;6.570;2024-03-02T14:30:22;4.95;;;2.72;;
75220;SDS011;63802;53.232;6.570;2024-03-02T14:32:48;7.28;;;3.28;;
75220;SDS011;63802;53.232;6.570;2024-03-02T14:35:18;5.82;;;2.33;;
75220;SDS011;63802;53.232;6.570;2024-03-02T14:38:03;5.43;;;2.20;;
75220;SDS011;63802;53.232;6.570;2024-03-02T14:40:35;3.17;;;2.10;;
75220;SDS011;63802;53.232;6.570;2024-03-02T14:43:33;3.53;;;1.90;;
75220;SDS011;63802;53.232;6.570;2024-03-02T14:46:06;3.40;;;2.27;;
75220;SDS011;63802;53.232;6.570;2024-03-02T14:48:35;3.47;;;2.10;;
75220;SDS011;63802;53.232;6.570;2024-03-02T14:51:21;2.78;;;1.77;;
75220;SDS011;63802;53.232;6.570;2024-03-02T14:53:47;5.65;;;2.25;;
75220;SDS011;63802;53.232;6.570;2024-03-02T14:56:12;5.50;;;2.00;;
75220;SDS011;63802;53.232;6.570;2024-03-02T14:58:40;2.72;;;2.00;;
75220;SDS011;63802;53.232;6.570;2024-03-02T15:01:06;3.28;;;2.00;;
75220;SDS011;63802;53.232;6.570;2024-03-02T15:03:35;4.47;;;1.97;;
75220;SDS011;63802;53.232;6.570;2024-03-02T15:06:12;4.25;;;2.10;;
75220;SDS011;63802;53.232;6.570;2024-03-02T15:08:44;4.10;;;1.90;;
75220;SDS011;63802;53.232;6.570;2024-03-02T15:11:11;3.63;;;2.00;;
75220;SDS011;63802;53.232;6.570;2024-03-02T15:13:37;4.28;;;2.70;;
75220;SDS011;63802;53.232;6.570;2024-03-02T15:16:04;6.13;;;2.50;;
75220;SDS011;63802;53.232;6.570;2024-03-02T15:18:39;5.57;;;2.30;;
75220;SDS011;63802;53.232;6.570;2024-03-02T15:21:08;3.70;;;2.28;;
75220;SDS011;63802;53.232;6.570;2024-03-02T15:23:35;3.53;;;2.00;;
75220;SDS011;63802;53.232;6.570;2024-03-02T15:26:03;3.67;;;2.00;;
75220;SDS011;63802;53.232;6.570;2024-03-02T15:28:30;4.32;;;2.25;;